Time;durP1;ratioP1;P1;durP2;ratioP2;P2;SDS_P1;SDS_P2;PMS_P1;PMS_P2;Temp;Humidity;BMP_temperature;BMP_pressure;BME280_temperature;BME280_humidity;BME280_pressure;Samples;Min_cycle;Max_cycle;Signal;HPM_P1;HPM_P2
2023/11/19 00:00:17;;;;;;;2.15;2.00;;;;;;;16.29;74.68;100808.03;5051150;28;20833;-82
2023/11/19 00:02:44;;;;;;;0.20;0.20;;;;;;;16.18;74.59;100800.47;5049594;28;20425;-81
2023/11/19 00:05:12;;;;;;;0.10;0.10;;;;;;;16.13;74.81;100810.50;5049060;28;20033;-82
2023/11/19 00:07:41;;;;;;;0.98;0.98;;;;;;;16.11;75.26;100815.06;5046065;28;20078;-82
2023/11/19 00:10:10;;;;;;;0.20;0.20;;;;;;;16.10;75.44;100823.13;5042876;28;20087;-82
2023/11/19 00:12:39;;;;;;;0.47;0.47;;;;;;;16.01;74.79;100819.06;5049720;28;20078;-81
2023/11/19 00:15:11;;;;;;;3.03;1.35;;;;;;;15.96;75.07;100832.63;5047714;28;20163;-82
2023/11/19 00:17:40;;;;;;;0.55;0.55;;;;;;;15.96;75.23;100829.06;5049888;28;20021;-82
2023/11/19 00:20:08;;;;;;;0.10;0.10;;;;;;;15.94;75.04;100836.31;5047502;28;20029;-82
2023/11/19 00:22:34;;;;;;;3.75;0.98;;;;;;;15.92;75.11;100840.84;5042951;28;20511;-82
2023/11/19 00:25:00;;;;;;;0.10;0.10;;;;;;;15.98;75.02;100848.59;5040510;28;20039;-82
2023/11/19 00:27:26;;;;;;;4.22;0.98;;;;;;;15.93;75.28;100842.56;5049071;28;20381;-82
2023/11/19 00:29:52;;;;;;;0.22;0.22;;;;;;;15.96;74.94;100832.63;5047810;28;20108;-82
2023/11/19 00:32:18;;;;;;;0.00;0.00;;;;;;;15.94;75.02;100831.81;5048379;28;20028;-82
2023/11/19 00:34:47;;;;;;;0.10;0.10;;;;;;;15.93;75.14;100831.88;5048692;28;20028;-82
2023/11/19 00:37:15;;;;;;;0.17;0.17;;;;;;;15.84;75.09;100838.50;5041689;28;20030;-81
2023/11/19 00:39:41;;;;;;;0.35;0.35;;;;;;;15.91;74.83;100823.06;5048494;28;20033;-81
2023/11/19 00:42:07;;;;;;;2.17;1.17;;;;;;;15.84;75.30;100820.66;5044658;28;20408;-82
2023/11/19 00:44:34;;;;;;;0.52;0.52;;;;;;;15.84;74.31;100815.31;5049027;28;20488;-81
2023/11/19 00:47:00;;;;;;;0.20;0.20;;;;;;;15.78;74.47;100818.19;5046595;28;20036;-81
2023/11/19 00:49:26;;;;;;;0.10;0.10;;;;;;;15.79;74.73;100811.94;5048991;28;20028;-82
2023/11/19 00:51:52;;;;;;;0.22;0.22;;;;;;;15.76;75.02;100809.38;5039988;28;20082;-82
2023/11/19 00:54:19;;;;;;;0.98;0.98;;;;;;;15.79;74.41;100809.25;5044043;28;20059;-81
2023/11/19 00:56:45;;;;;;;0.10;0.10;;;;;;;15.74;74.89;100813.94;5050368;28;20033;-81
2023/11/19 00:59:11;;;;;;;0.10;0.10;;;;;;;15.88;74.81;100796.50;5048260;28;20095;-81
2023/11/19 01:01:37;;;;;;;0.15;0.15;;;;;;;15.77;74.49;100808.44;5051791;28;20039;-80
2023/11/19 01:04:04;;;;;;;0.88;0.88;;;;;;;15.79;74.46;100790.56;5047996;28;20091;-81
2023/11/19 01:06:31;;;;;;;2.25;1.85;;;;;;;15.77;74.82;100803.09;5040198;28;20048;-82
2023/11/19 01:08:58;;;;;;;0.30;0.30;;;;;;;15.70;74.08;100804.28;5047809;28;20029;-82
2023/11/19 01:11:25;;;;;;;0.10;0.10;;;;;;;15.81;74.17;100780.69;5042649;28;20059;-81
2023/11/19 01:13:52;;;;;;;1.13;1.13;;;;;;;15.66;74.06;100789.34;5048176;28;20029;-82
2023/11/19 01:16:19;;;;;;;0.20;0.20;;;;;;;15.71;74.05;100794.50;5042543;28;20061;-81
2023/11/19 01:18:47;;;;;;;0.20;0.20;;;;;;;15.64;73.93;100788.56;5048262;28;20036;-81
2023/11/19 01:21:15;;;;;;;0.22;0.22;;;;;;;15.74;73.87;100787.22;5032370;28;20025;-82
2023/11/19 01:23:43;;;;;;;0.30;0.30;;;;;;;15.70;73.42;100801.63;5039578;28;20044;-82
2023/11/19 01:26:10;;;;;;;0.10;0.10;;;;;;;15.69;73.12;100789.22;5039902;28;20068;-82
2023/11/19 01:28:39;;;;;;;0.00;0.00;;;;;;;15.59;73.30;100786.06;5045449;28;20143;-81
2023/11/19 01:31:08;;;;;;;2.80;2.63;;;;;;;15.50;73.57;100790.00;5045895;28;20079;-82
2023/11/19 01:33:36;;;;;;;0.10;0.10;;;;;;;15.39;73.85;100792.25;5049037;28;20076;-81
2023/11/19 01:36:02;;;;;;;0.10;0.10;;;;;;;15.36;73.65;100792.34;5040665;28;20034;-81
2023/11/19 01:38:28;;;;;;;0.10;0.10;;;;;;;15.26;73.80;100793.66;5044869;28;20048;-82
2023/11/19 01:40:58;;;;;;;1.42;1.33;;;;;;;15.32;73.26;100804.09;5046201;28;20047;-81
2023/11/19 01:43:33;;;;;;;0.05;0.05;;;;;;;15.32;73.25;100794.28;5042883;28;20025;-81
2023/11/19 01:46:00;;;;;;;0.10;0.10;;;;;;;15.40;72.48;100806.44;5045517;28;20017;-81
2023/11/19 01:48:26;;;;;;;0.10;0.10;;;;;;;15.25;72.56;100791.91;5045581;28;20021;-82
2023/11/19 01:50:53;;;;;;;2.15;1.85;;;;;;;15.27;72.46;100793.59;5046915;28;20017;-82
2023/11/19 01:53:20;;;;;;;0.10;0.10;;;;;;;15.19;72.67;100793.06;5049419;28;20037;-82
2023/11/19 01:55:48;;;;;;;0.10;0.10;;;;;;;15.26;72.52;100788.31;5051561;28;20064;-82
2023/11/19 01:58:15;;;;;;;0.30;0.30;;;;;;;15.08;72.48;100789.91;5050645;28;20480;-81
2023/11/19 02:00:42;;;;;;;0.77;0.68;;;;;;;15.10;72.65;100788.91;5051487;28;20097;-81
2023/11/19 02:03:09;;;;;;;0.10;0.10;;;;;;;15.06;72.01;100792.66;5047669;28;20116;-81
2023/11/19 02:05:36;;;;;;;0.15;0.15;;;;;;;15.14;72.04;100784.34;5051742;28;20407;-81
2023/11/19 02:08:03;;;;;;;0.50;0.50;;;;;;;15.00;71.75;100803.56;5053732;28;20029;-80
2023/11/19 02:10:29;;;;;;;0.10;0.10;;;;;;;14.99;72.25;100807.16;5055598;28;20021;-80
2023/11/19 02:12:55;;;;;;;0.77;0.77;;;;;;;14.90;72.22;100815.53;5050905;28;20037;-81
2023/11/19 02:15:24;;;;;;;0.10;0.10;;;;;;;14.95;72.29;100838.41;5051279;28;20029;-82
2023/11/19 02:17:50;;;;;;;18.98;2.53;;;;;;;14.92;72.66;100838.56;5050160;28;20025;-81
2023/11/19 02:20:19;;;;;;;0.10;0.10;;;;;;;14.79;72.67;100822.16;5041479;28;20025;-80
2023/11/19 02:22:47;;;;;;;0.10;0.10;;;;;;;14.82;72.96;100816.69;5047723;28;20389;-81
2023/11/19 02:25:24;;;;;;;0.40;0.40;;;;;;;14.90;72.52;100810.19;5049745;28;20093;-80
2023/11/19 02:30:28;;;;;;;2.50;2.40;;;;;;;14.79;72.91;100829.25;5075396;28;20385;-81
2023/11/19 02:32:58;;;;;;;0.10;0.10;;;;;;;14.79;72.67;100822.16;5080648;28;20047;-81
2023/11/19 02:35:26;;;;;;;0.08;0.08;;;;;;;14.78;72.43;100811.53;5086202;28;20031;-80
2023/11/19 02:37:52;;;;;;;0.68;0.68;;;;;;;14.82;72.52;100819.34;5070253;28;20029;-81
2023/11/19 02:40:18;;;;;;;0.10;0.10;;;;;;;14.74;72.59;100825.91;5065328;28;20025;-81
2023/11/19 02:42:44;;;;;;;0.93;0.93;;;;;;;14.71;72.71;100808.22;5064889;28;20025;-81
2023/11/19 02:45:14;;;;;;;0.10;0.10;;;;;;;14.67;72.33;100806.63;5062966;28;20029;-81
2023/11/19 02:47:42;;;;;;;0.60;0.52;;;;;;;14.60;72.72;100811.25;5060861;28;20090;-81
2023/11/19 02:50:14;;;;;;;13.05;2.15;;;;;;;14.77;72.18;100808.00;5057514;28;20492;-81
2023/11/19 02:52:41;;;;;;;0.47;0.47;;;;;;;14.71;71.68;100803.75;5056526;28;20037;-81
2023/11/19 02:55:12;;;;;;;0.65;0.65;;;;;;;14.68;71.95;100792.34;5063285;28;20455;-81
2023/11/19 02:57:45;;;;;;;3.22;2.00;;;;;;;14.64;71.95;100794.25;5065898;28;20024;-81
2023/11/19 03:00:31;;;;;;;1.85;1.75;;;;;;;14.69;71.77;100799.41;5061866;28;20017;-80
2023/11/19 03:02:59;;;;;;;0.10;0.10;;;;;;;14.64;71.43;100785.34;5057994;28;20035;-80
2023/11/19 03:05:26;;;;;;;0.10;0.10;;;;;;;14.62;71.63;100803.22;5062279;28;20549;-81
2023/11/19 03:07:53;;;;;;;1.10;1.10;;;;;;;14.52;71.81;100802.69;5063476;28;20507;-81
2023/11/19 03:10:19;;;;;;;10.70;2.08;;;;;;;14.52;71.89;100800.03;5064874;28;20104;-81
2023/11/19 03:12:45;;;;;;;0.10;0.10;;;;;;;14.50;71.35;100794.72;5064533;28;20107;-81
2023/11/19 03:15:12;;;;;;;0.10;0.10;;;;;;;14.53;71.30;100797.28;5063251;28;20524;-81
2023/11/19 03:17:40;;;;;;;0.00;0.00;;;;;;;14.46;71.21;100793.13;5059322;28;20059;-80
2023/11/19 03:20:16;;;;;;;1.55;1.52;;;;;;;14.50;70.99;100786.72;5062477;28;20021;-81
2023/11/19 03:22:43;;;;;;;0.38;0.38;;;;;;;14.49;70.66;100790.34;5048172;28;20045;-81
2023/11/19 03:25:10;;;;;;;0.95;0.95;;;;;;;14.51;70.89;100779.63;5061570;28;20698;-81
2023/11/19 03:27:38;;;;;;;0.10;0.10;;;;;;;14.45;70.29;100770.03;5064613;28;20402;-81
2023/11/19 03:30:06;;;;;;;0.10;0.10;;;;;;;14.42;70.21;100770.16;5061881;28;20096;-80
2023/11/19 03:32:34;;;;;;;1.30;1.20;;;;;;;14.42;70.52;100766.63;5058685;28;20052;-80
2023/11/19 03:35:01;;;;;;;0.52;0.52;;;;;;;14.48;69.84;100763.72;5061568;28;20024;-81
2023/11/19 03:37:27;;;;;;;20.48;3.83;;;;;;;14.44;70.08;100768.28;5059575;28;20025;-80
2023/11/19 03:39:55;;;;;;;0.10;0.10;;;;;;;14.29;70.23;100795.53;5060668;28;20021;-81
2023/11/19 03:42:21;;;;;;;0.25;0.25;;;;;;;14.33;70.31;100791.81;5050092;28;20496;-81
2023/11/19 03:44:49;;;;;;;0.45;0.43;;;;;;;14.39;70.05;100796.94;5047733;28;20037;-80
2023/11/19 03:47:15;;;;;;;1.00;1.00;;;;;;;14.37;70.24;100791.66;5043809;28;20021;-80
2023/11/19 03:49:42;;;;;;;2.35;2.15;;;;;;;14.42;70.29;100791.50;5051330;28;20021;-81
2023/11/19 03:52:09;;;;;;;1.17;1.17;;;;;;;14.32;70.43;100790.97;5044868;28;20029;-80
2023/11/19 03:54:35;;;;;;;0.10;0.10;;;;;;;14.24;70.79;100793.91;5050899;28;20025;-81
2023/11/19 03:57:03;;;;;;;0.10;0.10;;;;;;;14.32;70.70;100787.44;5048335;28;20021;-81
2023/11/19 03:59:29;;;;;;;0.10;0.10;;;;;;;14.27;70.97;100782.25;5045093;28;20029;-81
2023/11/19 04:01:56;;;;;;;0.10;0.10;;;;;;;14.27;70.59;100797.38;5047819;28;20029;-80
2023/11/19 04:04:22;;;;;;;0.05;0.05;;;;;;;14.11;71.17;100786.41;5049674;28;20032;-80
2023/11/19 04:06:49;;;;;;;0.13;0.13;;;;;;;14.22;70.74;100809.06;5049575;28;20032;-81
2023/11/19 04:09:15;;;;;;;0.05;0.05;;;;;;;14.27;70.59;100802.69;5048996;28;20022;-81
2023/11/19 04:11:41;;;;;;;1.85;1.75;;;;;;;14.18;70.43;100806.56;5050172;28;20399;-80
2023/11/19 04:14:07;;;;;;;0.30;0.30;;;;;;;14.24;69.99;100819.66;5044966;28;20083;-80
2023/11/19 04:16:34;;;;;;;0.10;0.10;;;;;;;14.22;70.15;100792.22;5044746;28;20021;-80
2023/11/19 04:19:00;;;;;;;0.10;0.10;;;;;;;14.23;70.00;100794.81;5049141;28;20029;-80
2023/11/19 04:21:26;;;;;;;0.13;0.13;;;;;;;14.26;69.75;100796.50;5052344;28;20032;-81
2023/11/19 04:23:52;;;;;;;0.10;0.10;;;;;;;14.19;69.35;100798.53;5049552;28;20029;-81
2023/11/19 04:26:19;;;;;;;0.10;0.10;;;;;;;14.30;68.98;100806.13;5049282;28;20029;-81
2023/11/19 04:28:45;;;;;;;0.20;0.20;;;;;;;14.40;68.93;100799.56;5049819;28;20067;-81
2023/11/19 04:31:11;;;;;;;0.10;0.10;;;;;;;14.23;68.62;100797.50;5042683;28;20033;-80
2023/11/19 04:33:37;;;;;;;0.40;0.40;;;;;;;14.27;68.73;100802.69;5045910;28;20035;-80
2023/11/19 04:36:04;;;;;;;0.10;0.10;;;;;;;14.28;68.41;100801.78;5046555;28;20052;-81
2023/11/19 04:38:30;;;;;;;3.28;1.98;;;;;;;14.15;68.64;100820.88;5050079;28;20029;-80
2023/11/19 04:40:57;;;;;;;7.22;1.50;;;;;;;14.21;68.74;100812.66;5047133;28;20049;-81
2023/11/19 04:43:23;;;;;;;0.30;0.30;;;;;;;14.25;68.45;100800.09;5044772;28;20144;-81
2023/11/19 04:45:49;;;;;;;0.60;0.60;;;;;;;14.27;67.81;100805.38;5045640;28;20108;-80
2023/11/19 04:48:15;;;;;;;0.40;0.40;;;;;;;14.20;68.07;100808.25;5046413;28;20044;-80
2023/11/19 04:50:41;;;;;;;1.02;0.90;;;;;;;14.38;67.51;100803.19;5049270;28;20029;-80
2023/11/19 04:53:07;;;;;;;0.50;0.50;;;;;;;14.29;67.55;100793.72;5043480;28;20040;-80
2023/11/19 04:55:33;;;;;;;0.98;0.98;;;;;;;14.23;67.73;100799.28;5047154;28;20027;-80
2023/11/19 04:58:00;;;;;;;0.10;0.10;;;;;;;14.19;67.89;100809.19;5045088;28;20403;-80
2023/11/19 05:00:26;;;;;;;0.43;0.43;;;;;;;14.28;67.64;100807.09;5048887;28;20025;-80
2023/11/19 05:02:52;;;;;;;0.10;0.10;;;;;;;14.33;67.35;100813.13;5047367;28;20024;-81
2023/11/19 05:05:18;;;;;;;1.15;1.15;;;;;;;14.15;68.03;100817.34;5042708;28;20029;-80
2023/11/19 05:07:44;;;;;;;0.60;0.60;;;;;;;14.22;67.62;100827.72;5048591;28;20079;-80
2023/11/19 05:10:10;;;;;;;0.20;0.20;;;;;;;14.16;67.75;100811.97;5045979;28;20476;-81
2023/11/19 05:12:37;;;;;;;4.72;0.63;;;;;;;14.20;67.97;100813.56;5050645;28;20059;-81
2023/11/19 05:15:03;;;;;;;0.10;0.10;;;;;;;14.17;67.87;100819.03;5050677;28;20112;-80
2023/11/19 05:17:29;;;;;;;0.17;0.17;;;;;;;14.22;67.83;100811.75;5043722;28;20116;-80
2023/11/19 05:19:55;;;;;;;0.45;0.45;;;;;;;14.14;68.17;100810.28;5052573;28;20540;-80
2023/11/19 05:22:21;;;;;;;0.10;0.10;;;;;;;14.18;68.14;100807.44;5040118;28;20089;-81
2023/11/19 05:24:49;;;;;;;1.13;1.13;;;;;;;14.21;67.79;100810.00;5051328;28;20638;-81
2023/11/19 05:27:15;;;;;;;0.50;0.50;;;;;;;14.07;68.53;100810.50;5040049;28;20096;-80
2023/11/19 05:29:42;;;;;;;8.07;4.47;;;;;;;14.02;68.74;100808.94;5045838;28;20028;-81
2023/11/19 05:32:08;;;;;;;0.40;0.40;;;;;;;14.18;68.10;100815.44;5037593;28;20037;-80
2023/11/19 05:34:35;;;;;;;0.13;0.13;;;;;;;14.18;68.28;100818.13;5049258;28;20025;-80
2023/11/19 05:37:01;;;;;;;0.88;0.88;;;;;;;14.05;68.44;100814.13;5046705;28;20021;-81
2023/11/19 05:39:28;;;;;;;0.10;0.10;;;;;;;14.06;68.32;100814.06;5048472;28;20025;-80
2023/11/19 05:41:54;;;;;;;0.00;0.00;;;;;;;14.13;68.21;100827.19;5046604;28;20067;-80
2023/11/19 05:44:20;;;;;;;0.00;0.00;;;;;;;14.08;68.65;100830.88;5040729;28;20413;-80
2023/11/19 05:46:46;;;;;;;1.17;1.17;;;;;;;14.07;68.30;100820.28;5045321;28;20025;-80
2023/11/19 05:49:13;;;;;;;0.10;0.10;;;;;;;14.16;68.39;100822.63;5047053;28;20028;-80
2023/11/19 05:51:39;;;;;;;1.38;1.38;;;;;;;14.12;68.15;100825.44;5048453;28;20535;-81
2023/11/19 05:54:09;;;;;;;0.10;0.10;;;;;;;14.22;67.98;100821.53;5046145;28;20115;-81
2023/11/19 05:56:35;;;;;;;0.43;0.43;;;;;;;14.14;68.09;100819.13;5048989;28;20021;-80
2023/11/19 05:59:06;;;;;;;0.25;0.25;;;;;;;14.13;67.96;100811.19;5045974;28;20063;-81
2023/11/19 06:01:34;;;;;;;0.10;0.10;;;;;;;14.13;67.83;100817.41;5029738;28;20052;-80
2023/11/19 06:04:00;;;;;;;0.17;0.17;;;;;;;13.95;68.36;100818.03;5040060;28;20083;-81
2023/11/19 06:06:28;;;;;;;0.10;0.10;;;;;;;14.07;67.85;100829.13;5043855;28;20033;-80
2023/11/19 06:08:54;;;;;;;1.95;1.85;;;;;;;14.12;67.38;100821.00;5047500;28;20028;-80
2023/11/19 06:11:21;;;;;;;0.10;0.10;;;;;;;14.13;67.15;100817.41;5046875;28;20036;-80
2023/11/19 06:13:47;;;;;;;0.45;0.45;;;;;;;13.98;67.58;100812.59;5047376;28;20036;-80
2023/11/19 06:16:14;;;;;;;0.10;0.10;;;;;;;14.00;67.58;100810.75;5038866;28;20029;-80
2023/11/19 06:18:41;;;;;;;0.85;0.82;;;;;;;14.07;67.48;100812.28;5041686;28;20021;-80
2023/11/19 06:21:07;;;;;;;0.10;0.10;;;;;;;14.08;67.03;100798.91;5040149;28;20021;-80
2023/11/19 06:23:33;;;;;;;0.10;0.10;;;;;;;13.96;67.19;100811.81;5048698;28;20033;-81
2023/11/19 06:25:59;;;;;;;0.13;0.13;;;;;;;13.89;67.61;100817.34;5045855;28;20033;-81
2023/11/19 06:28:25;;;;;;;0.20;0.20;;;;;;;14.02;67.29;100814.25;5046846;28;20068;-80
2023/11/19 06:30:52;;;;;;;0.10;0.10;;;;;;;13.99;67.38;100817.88;5040061;28;20037;-80
2023/11/19 06:33:18;;;;;;;0.38;0.38;;;;;;;14.08;66.94;100816.66;5052552;28;20080;-79
2023/11/19 06:35:44;;;;;;;0.10;0.10;;;;;;;14.09;67.07;100821.09;5050116;28;20487;-80
2023/11/19 06:38:11;;;;;;;0.13;0.13;;;;;;;14.02;66.90;100841.75;5045952;28;20026;-80
2023/11/19 06:40:37;;;;;;;1.50;1.45;;;;;;;14.02;66.90;100831.09;5048462;28;20040;-80
2023/11/19 06:43:03;;;;;;;0.17;0.17;;;;;;;14.08;66.76;100832.66;5040354;28;20037;-79
2023/11/19 06:45:30;;;;;;;0.10;0.10;;;;;;;14.12;66.66;100833.41;5045633;28;20059;-80
2023/11/19 06:47:56;;;;;;;0.10;0.10;;;;;;;14.05;67.00;100840.78;5045802;28;20542;-81
2023/11/19 06:50:23;;;;;;;12.95;2.08;;;;;;;13.96;66.89;100833.97;5046894;28;20067;-80
2023/11/19 06:52:49;;;;;;;0.10;0.10;;;;;;;13.83;67.07;100841.53;5045917;28;20126;-80
2023/11/19 06:55:16;;;;;;;0.28;0.28;;;;;;;14.00;67.26;100848.06;5045858;28;20405;-80
2023/11/19 06:57:42;;;;;;;0.20;0.20;;;;;;;14.03;66.98;100858.59;5040879;28;20026;-80
2023/11/19 07:00:11;;;;;;;2.75;1.00;;;;;;;14.12;66.70;100852.97;5036740;28;20025;-81
2023/11/19 07:02:37;;;;;;;2.88;2.65;;;;;;;14.00;66.86;100866.69;5035498;28;20053;-80
2023/11/19 07:05:04;;;;;;;0.68;0.68;;;;;;;14.13;66.65;100849.38;5035157;28;20025;-79
2023/11/19 07:07:32;;;;;;;3.08;1.27;;;;;;;14.12;67.13;100866.28;5034404;28;20025;-81
2023/11/19 07:09:58;;;;;;;0.10;0.10;;;;;;;14.10;67.09;100849.47;5034360;28;20025;-80
2023/11/19 07:12:26;;;;;;;0.10;0.10;;;;;;;14.30;66.68;100850.56;5032320;28;20036;-80
2023/11/19 07:14:53;;;;;;;0.57;0.47;;;;;;;14.29;66.77;100859.50;5032918;28;20037;-81
2023/11/19 07:17:20;;;;;;;0.75;0.75;;;;;;;14.39;66.74;100860.91;5037939;28;20109;-81
2023/11/19 07:19:47;;;;;;;0.10;0.10;;;;;;;14.20;67.17;100863.34;5038459;28;20026;-81
2023/11/19 07:22:13;;;;;;;2.35;2.15;;;;;;;14.30;67.00;100846.09;5037094;28;20021;-81
2023/11/19 07:24:41;;;;;;;1.20;1.20;;;;;;;14.22;67.49;100853.53;5037180;28;20137;-80
2023/11/19 07:27:08;;;;;;;0.40;0.40;;;;;;;14.39;67.16;100858.22;5037479;28;20034;-81
2023/11/19 07:29:35;;;;;;;1.38;1.30;;;;;;;14.31;67.35;100852.31;5036877;28;20029;-81
2023/11/19 07:32:02;;;;;;;4.13;1.17;;;;;;;14.42;66.77;100858.13;5037111;28;20065;-80
2023/11/19 07:34:29;;;;;;;2.45;2.35;;;;;;;14.33;66.95;100850.44;5038588;28;20026;-80
2023/11/19 07:36:59;;;;;;;1.75;1.58;;;;;;;14.39;66.71;100852.91;5037198;28;20037;-81
2023/11/19 07:39:25;;;;;;;1.20;1.20;;;;;;;14.47;66.60;100853.50;5038508;28;20029;-81
2023/11/19 07:41:51;;;;;;;0.10;0.10;;;;;;;14.50;66.36;100852.53;5037594;28;20037;-80
2023/11/19 07:44:17;;;;;;;7.10;2.17;;;;;;;14.37;66.73;100857.44;5038176;28;20030;-80
2023/11/19 07:46:44;;;;;;;0.20;0.20;;;;;;;14.45;66.53;100855.34;5036960;28;20026;-80
2023/11/19 07:49:11;;;;;;;2.97;0.47;;;;;;;14.54;66.32;100862.13;5037825;28;20056;-81
2023/11/19 07:51:37;;;;;;;1.45;1.35;;;;;;;14.53;66.30;100853.28;5036494;28;20029;-80
2023/11/19 07:54:04;;;;;;;0.10;0.10;;;;;;;14.56;66.42;100863.81;5037204;28;20037;-81
2023/11/19 07:56:30;;;;;;;0.60;0.60;;;;;;;14.60;66.51;100855.72;5038035;28;20620;-81
2023/11/19 07:58:56;;;;;;;1.10;1.00;;;;;;;14.56;66.78;100854.97;5037844;28;20045;-81
2023/11/19 08:01:23;;;;;;;0.10;0.10;;;;;;;14.53;67.05;100855.09;5035911;28;20108;-79
2023/11/19 08:03:49;;;;;;;0.10;0.10;;;;;;;14.47;67.32;100863.31;5049148;28;20037;-80
2023/11/19 08:06:15;;;;;;;0.30;0.30;;;;;;;14.33;67.62;100861.13;5049015;28;20104;-80
2023/11/19 08:08:42;;;;;;;0.93;0.93;;;;;;;14.41;67.46;100859.06;5050862;28;20025;-81
2023/11/19 08:11:09;;;;;;;0.28;0.28;;;;;;;14.33;67.52;100862.00;5044068;28;20124;-81
2023/11/19 08:13:35;;;;;;;0.10;0.10;;;;;;;14.33;67.70;100858.44;5050316;28;20112;-80
2023/11/19 08:16:01;;;;;;;0.17;0.17;;;;;;;14.29;67.83;100860.34;5047821;28;20025;-81
2023/11/19 08:18:27;;;;;;;0.10;0.10;;;;;;;14.31;67.85;100865.66;5049473;28;20041;-81
2023/11/19 08:20:53;;;;;;;0.40;0.40;;;;;;;14.34;67.59;100861.09;5048230;28;20054;-80
2023/11/19 08:23:20;;;;;;;12.95;0.73;;;;;;;14.28;67.74;100868.41;5049605;28;20033;-81
2023/11/19 08:25:46;;;;;;;0.10;0.10;;;;;;;14.37;67.78;100873.44;5046409;28;20033;-80
2023/11/19 08:28:12;;;;;;;7.28;2.17;;;;;;;14.40;67.58;100874.19;5041329;28;20461;-80
2023/11/19 08:30:39;;;;;;;10.30;2.60;;;;;;;14.46;67.54;100872.22;5048284;28;20120;-80
2023/11/19 08:33:06;;;;;;;0.10;0.10;;;;;;;14.54;67.19;100876.34;5042180;28;20520;-81
2023/11/19 08:35:33;;;;;;;0.45;0.45;;;;;;;14.54;67.08;100868.34;5044846;28;20040;-80
2023/11/19 08:37:59;;;;;;;1.40;1.40;;;;;;;14.53;66.61;100876.41;5046205;28;20447;-80
2023/11/19 08:40:26;;;;;;;0.25;0.25;;;;;;;14.59;66.79;100862.84;5050559;28;20083;-81
2023/11/19 08:42:52;;;;;;;0.63;0.63;;;;;;;14.70;66.92;100870.50;5044593;28;20029;-80
2023/11/19 08:45:19;;;;;;;0.68;0.68;;;;;;;14.67;66.98;100873.28;5047089;28;20079;-81
2023/11/19 08:47:45;;;;;;;0.20;0.20;;;;;;;14.67;66.95;100862.63;5056539;28;20074;-80
2023/11/19 08:50:11;;;;;;;0.38;0.38;;;;;;;14.73;67.10;100870.41;5043385;28;20028;-81
2023/11/19 08:52:38;;;;;;;9.20;1.35;;;;;;;14.92;66.76;100875.03;5037676;28;20389;-80
2023/11/19 08:55:06;;;;;;;5.93;3.13;;;;;;;14.87;66.43;100872.53;5046274;28;20420;-80
2023/11/19 08:57:33;;;;;;;1.27;0.77;;;;;;;14.90;66.65;100876.88;5050429;28;20043;-81
2023/11/19 08:59:59;;;;;;;0.00;0.00;;;;;;;14.95;66.49;100870.44;5045183;28;20025;-81
2023/11/19 09:02:26;;;;;;;0.22;0.22;;;;;;;14.98;66.33;100866.81;5048740;28;20443;-80
2023/11/19 09:04:52;;;;;;;0.10;0.10;;;;;;;14.88;66.46;100866.28;5049609;28;20052;-80
2023/11/19 09:07:18;;;;;;;7.03;1.63;;;;;;;14.97;66.48;100868.59;5042823;28;20119;-81
2023/11/19 09:09:44;;;;;;;0.10;0.10;;;;;;;14.85;66.25;100875.28;5044252;28;20024;-81
2023/11/19 09:12:10;;;;;;;0.00;0.00;;;;;;;15.12;66.22;100872.47;5045971;28;20045;-81
2023/11/19 09:14:36;;;;;;;0.50;0.47;;;;;;;15.01;66.31;100874.69;5050086;28;20024;-81
2023/11/19 09:17:02;;;;;;;0.77;0.75;;;;;;;15.14;66.08;100883.06;5046302;28;20115;-80
2023/11/19 09:19:29;;;;;;;2.10;1.95;;;;;;;15.26;65.41;100873.75;5049568;28;20033;-81
2023/11/19 09:21:55;;;;;;;0.10;0.10;;;;;;;15.23;65.37;100871.16;5046894;28;20029;-81
2023/11/19 09:24:21;;;;;;;0.03;0.03;;;;;;;15.19;65.09;100876.66;5047166;28;20036;-81
2023/11/19 09:26:47;;;;;;;0.10;0.10;;;;;;;15.16;65.21;100874.06;5049185;28;20025;-82
2023/11/19 09:29:14;;;;;;;0.85;0.85;;;;;;;15.35;64.48;100873.34;5042111;28;20081;-81
2023/11/19 09:31:40;;;;;;;1.25;1.25;;;;;;;15.29;64.74;100871.81;5044317;28;20033;-81
2023/11/19 09:34:07;;;;;;;0.10;0.10;;;;;;;15.32;64.73;100869.00;5046626;28;20036;-81
2023/11/19 09:36:33;;;;;;;11.82;2.65;;;;;;;15.33;65.08;100869.91;5039537;28;20024;-80
2023/11/19 09:39:01;;;;;;;9.73;2.55;;;;;;;15.28;65.24;100870.06;5047093;28;20049;-80
2023/11/19 09:41:29;;;;;;;0.75;0.40;;;;;;;15.39;64.63;100861.66;5049010;28;20492;-80
2023/11/19 09:43:55;;;;;;;0.68;0.68;;;;;;;15.49;64.62;100855.00;5043613;28;20040;-81
2023/11/19 09:46:24;;;;;;;0.10;0.10;;;;;;;15.48;64.81;100863.94;5043286;28;20057;-82
2023/11/19 09:48:54;;;;;;;1.05;1.05;;;;;;;15.46;64.07;100864.94;5045038;28;20622;-80
2023/11/19 09:51:22;;;;;;;0.95;0.88;;;;;;;15.34;64.14;100877.00;5047655;28;20496;-80
2023/11/19 09:53:49;;;;;;;0.05;0.05;;;;;;;15.46;64.03;100860.44;5048661;28;20436;-80
2023/11/19 09:56:16;;;;;;;3.22;1.92;;;;;;;15.46;63.83;100876.47;5047135;28;20029;-81
2023/11/19 09:58:43;;;;;;;0.10;0.10;;;;;;;15.48;63.97;100863.94;5048113;28;20024;-80
2023/11/19 10:01:12;;;;;;;0.30;0.30;;;;;;;15.64;63.62;100869.53;5044501;28;20060;-78
2023/11/19 10:03:39;;;;;;;0.00;0.00;;;;;;;15.69;63.05;100861.34;5039188;28;20036;-80
2023/11/19 10:06:10;;;;;;;0.50;0.50;;;;;;;15.73;63.06;100862.94;5046170;28;20021;-81
2023/11/19 10:08:39;;;;;;;0.10;0.10;;;;;;;15.79;63.24;100862.69;5046070;28;20032;-80
2023/11/19 10:11:07;;;;;;;0.10;0.10;;;;;;;15.76;62.68;100861.94;5041942;28;20459;-80
2023/11/19 10:13:38;;;;;;;3.40;0.73;;;;;;;15.77;62.09;100853.84;5048380;28;20039;-80
2023/11/19 10:16:09;;;;;;;5.68;1.00;;;;;;;15.83;61.32;100853.63;5044537;28;20527;-80
2023/11/19 10:18:37;;;;;;;0.50;0.50;;;;;;;15.86;61.43;100857.97;5044993;28;20017;-81
2023/11/19 10:21:05;;;;;;;0.80;0.80;;;;;;;15.90;61.48;100856.06;5046240;28;20028;-80
2023/11/19 10:23:47;;;;;;;0.10;0.10;;;;;;;15.94;60.80;100847.00;5049976;28;20035;-80
2023/11/19 10:26:13;;;;;;;0.98;0.93;;;;;;;15.93;60.39;100843.44;5043323;28;20022;-81
2023/11/19 10:28:44;;;;;;;0.32;0.32;;;;;;;15.85;59.77;100846.44;5042615;28;20523;-80
2023/11/19 10:31:10;;;;;;;0.10;0.10;;;;;;;15.89;59.43;100838.28;5036724;28;20037;-80
2023/11/19 10:33:36;;;;;;;0.57;0.57;;;;;;;15.92;59.56;100841.69;5049357;28;20528;-80
2023/11/19 10:36:02;;;;;;;0.10;0.10;;;;;;;16.00;59.07;100844.06;5045796;28;20089;-80
2023/11/19 10:38:29;;;;;;;0.10;0.10;;;;;;;15.90;58.59;100837.34;5048797;28;20040;-80
2023/11/19 10:40:55;;;;;;;0.08;0.08;;;;;;;15.98;58.34;100835.22;5046512;28;20063;-79
2023/11/19 10:43:22;;;;;;;0.08;0.08;;;;;;;16.06;58.84;100845.59;5042608;28;20080;-80
2023/11/19 10:45:49;;;;;;;1.17;1.17;;;;;;;16.12;58.59;100827.47;5047983;28;20099;-81
2023/11/19 10:48:16;;;;;;;0.98;0.90;;;;;;;16.18;58.70;100842.38;5047006;28;20022;-82
2023/11/19 10:50:44;;;;;;;0.10;0.10;;;;;;;16.14;58.13;100828.28;5049298;28;20562;-80
2023/11/19 10:53:13;;;;;;;0.63;0.63;;;;;;;16.21;58.49;100836.03;5044954;28;20018;-82
2023/11/19 10:55:40;;;;;;;1.27;1.17;;;;;;;16.05;58.00;100831.38;5046923;28;20060;-80
2023/11/19 10:58:08;;;;;;;0.10;0.10;;;;;;;16.26;57.71;100832.25;5043442;28;20033;-79
2023/11/19 11:00:43;;;;;;;0.82;0.82;;;;;;;16.17;57.80;100835.28;5052809;28;20112;-80
2023/11/19 11:03:16;;;;;;;0.00;0.00;;;;;;;16.08;58.49;100841.06;5048398;28;20029;-80
2023/11/19 11:05:47;;;;;;;0.95;0.60;;;;;;;16.13;58.29;100817.66;5048718;28;20067;-80
2023/11/19 11:08:13;;;;;;;0.10;0.10;;;;;;;16.17;59.03;100836.19;5044885;28;20056;-79
2023/11/19 11:10:45;;;;;;;0.20;0.20;;;;;;;16.23;59.78;100827.00;5049716;28;20040;-80
2023/11/19 11:13:13;;;;;;;0.40;0.40;;;;;;;16.14;60.57;100825.59;5043199;28;20037;-79
2023/11/19 11:15:42;;;;;;;2.20;1.85;;;;;;;16.20;60.93;100823.59;5053860;28;20271;-80
2023/11/19 11:18:09;;;;;;;0.10;0.10;;;;;;;16.21;61.28;100823.53;5041259;28;20029;-80
2023/11/19 11:20:36;;;;;;;0.10;0.10;;;;;;;16.26;61.14;100821.53;5047541;28;20028;-81
2023/11/19 11:23:32;;;;;;;0.05;0.05;;;;;;;16.30;61.12;100823.13;5049560;28;20020;-81
2023/11/19 11:29:00;;;;;;;0.10;0.10;;;;;;;16.24;61.23;100830.56;5116143;27;20474;-81